NWS Home NWS Lubbock West Texas Mesonet                      Daily Summary For 11/30/2020

Latest   N   C   S   Daily Sum   3hrΔ   24hrΔ   Soil Data 
Site Map   24hr Precip   72hr Precip   Google Plot


Station Time of Last Max Temp Min Temp Max/Min Dew Pt. Max/Min RH 10m Avg Wind 2m Avg Wind Peak Gust @ 33ft (mph) Potential Evapotranspiration
mm/day or in/day
Rain Sum Solar Rad
MJ/m^2
% Clear Day Red Flag
Abernathy 5ENE 11:59 PM 40 37 22 /16 91 / 15 10.9  (NW) 7.8 21.9 mph 231° @ 0437 PM 1.8 or 0.07 0.00 14.4 106.3 0
Adrian 6WSW 11:59 PM 40 37 22 /16 91 / 15 13.9  (NW) 10 30.1 mph 224° @ 0321 PM 2 or 0.08 0.00 14.3 109.9 0
Aiken 3WSW 11:59 PM 40 37 22 /16 91 / 15 10.6  (NW) 7.6 23 mph 232° @ 0209 PM 1.8 or 0.07 0.00 15.4 114.5 0
Amarillo 15NNW 11:59 PM 40 37 22 /16 91 / 15 12.8  (W) 8.3 32.7 mph 216° @ 0950 PM 2.3 or 0.09 0.00 13.4 104.7 0
Amarillo 7SSE 11:59 PM 40 37 22 /16 91 / 15 11.4  (N) 8 28.1 mph 218° @ 0353 PM 2 or 0.08 0.00 13.2 101.5 0
Amarillo 9NNE 11:59 PM 40 37 22 /16 91 / 15 10.5  (NW) 7.5 32.2 mph 206° @ 0906 PM 1.8 or 0.07 0.00 14.3 111.1 0
Amherst 1NE 11:55 PM 40 37 22 /16 91 / 15 10.7  (NW) 7.5 23 mph 209° @ 0445 PM 1.8 or 0.07 0.00 14.1 103.9 0
Andrews 2E 11:59 PM 40 37 22 /16 91 / 15 7.8  (N) 3.6 16.4 mph 195° @ 1153 PM 1.8 or 0.07 0.00 1.2 42.6 0
Anton 6SSW 11:55 PM 40 37 22 /16 91 / 15 10.4  (NW) 7.4 21.4 mph 233° @ 0310 PM 1.8 or 0.07 0.00 14.1 103.5 0
Aspermont 3NE 11:55 PM 40 37 22 /16 91 / 15 7.2  (W) 4.1 16 mph 204° @ 0415 PM 1.5 or 0.06 0.00 14.2 103.6 0
Big Bend NP - Castolon 11:59 PM 40 37 22 /16 91 / 15 7.9  (N) 6 35.7 mph 11° @ 0209 AM 2.5 or 0.1 0.00 16.2 103.7 0
Big Bend NP - Persimmon Gap 11:59 PM 40 37 22 /16 91 / 15 10.3  (NE) 8.5 27.2 mph 52° @ 1210 AM 2.8 or 0.11 0.00 16.4 105.9 0
Big Lake 1WNW 11:59 PM 40 37 22 /16 91 / 15 5.6  (N) 3.5 13.5 mph 3° @ 0148 AM 1.8 or 0.07 0.00 16.8 113.7 0
Bootleg 11WNW 11:59 PM 40 37 22 /16 91 / 15 15.4  (NW) 10.7 35.1 mph 207° @ 0248 PM 2.3 or 0.09 0.00 12 91.2 0
Borger 7E 11:59 PM 40 37 22 /16 91 / 15 12.8  (NW) 7.4 29.6 mph 243° @ 1248 PM 2.3 or 0.09 0.00 15.6 122.8 0
Boys Ranch 1WSW 11:59 PM 40 37 22 /16 91 / 15 8.7  (W) 7 25.5 mph 208° @ 0227 PM 1.8 or 0.07 0.00 12.9 100.9 0
Brownfield 2S 11:59 PM 40 37 22 /16 91 / 15 8.8  (N) 5.9 19.7 mph 212° @ 0326 PM 2 or 0.08 0.00 14.1 101.4 0
Canadian 6E 11:59 PM 40 37 22 /16 91 / 15 8.7  (NW) 5.5 25.9 mph 251° @ 0220 PM 1.8 or 0.07 0.00 13.9 110.8 0
Caprock Canyons State Park 11:59 PM 40 37 22 /16 91 / 15 11.1  (N) 7.6 36.8 mph 241° @ 1114 PM 2.3 or 0.09 0.00 14.4 108.7 0
Childress 2NNE 11:55 PM 40 37 22 /16 91 / 15 10.4  (N) 6.7 21.9 mph 210° @ 1140 PM 2 or 0.08 0.00 13.8 104.6 0
Clarendon 2WSW 11:55 PM 40 37 22 /16 91 / 15 10.3  (NW) 6.4 24.9 mph 227° @ 0355 PM 2 or 0.08 0.00 13.7 105.1 0
Claude 12SW 11:59 PM 40 37 22 /16 91 / 15 11  (NW) 8.1 34 mph 220° @ 1054 PM 2 or 0.08 0.00 14.9 113.8 0
Clyde 2WNW 11:59 PM 40 37 22 /16 91 / 15 8  (N) 5.2 22.1 mph 3° @ 0130 AM 1.5 or 0.06 0.00 15.3 108.3 0
Colorado City 5NW 11:59 PM 40 37 22 /16 91 / 15 6.8  (N) 4 15.3 mph 14° @ 0239 AM 1.5 or 0.06 0.01 15.1 107.1 0
Comanche Springs 11:59 PM 40 37 22 /16 91 / 15 5.7  (NW) 3.6 16.4 mph 207° @ 0356 PM 1.3 or 0.05 0.00 15.1 113 0
Coyanosa 2N 11:59 PM 40 37 22 /16 91 / 15 5.5  (NE) 2.9 14.8 mph 28° @ 1211 AM 1.8 or 0.07 0.00 15.3 104.2 0
Crane 1NNW 11:59 PM 40 37 22 /16 91 / 15 4  (NE) 1.5 17.6 mph 189° @ 1133 PM 1.5 or 0.06 0.00 16.3 111.4 0
Crowell 1E 11:59 PM 40 37 22 /16 91 / 15 8.9  (N) 6.9 20.8 mph 2° @ 1235 AM 1.8 or 0.07 0.00 14.6 109.4 0
Dell City 11:59 PM 40 37 22 /16 91 / 15 6.8  (N) 4.6 23.5 mph 16° @ 1222 AM 1.8 or 0.07 0.00 14.5 99.7 0
Denver City 7WNW 11:55 PM 40 37 22 /16 91 / 15 9.2  (NW) 5.7 19.7 mph 224° @ 0305 PM 1.8 or 0.07 0.00 15.4 109.6 0
Dimmitt 2NE 11:55 PM 40 37 22 /16 91 / 15 13.3  (NW) 9.9 27.1 mph 215° @ 0335 PM 2 or 0.08 0.00 13.9 104.5 0
Doole 3WNW 11:59 PM 40 37 22 /16 91 / 15 8  (N) 5.4 20.9 mph 344° @ 1236 AM 1.8 or 0.07 0.00 16.1 111 0
Dora NM 2SW 11:55 PM 40 37 22 /16 91 / 15 11.7  (NW) 7.3 26.1 mph 233° @ 0245 PM 2 or 0.08 0.00 12.8 93.7 0
Dozier 3W 11:59 PM 40 37 22 /16 91 / 15 6.2  (NW) 3.4 21.2 mph 217° @ 0409 PM 1.5 or 0.06 0.00 13.9 107.7 0
Earth 9WSW 11:59 PM 40 37 22 /16 91 / 15 11.5  (W) 7.5 26.8 mph 205° @ 1029 PM 2 or 0.08 0.00 14 104.2 0
Endee NM 2SW 11:59 PM 40 37 22 /16 91 / 15 12  (SE) 8.4 31.3 mph 226° @ 0240 PM 2 or 0.08 0.00 13.3 101.8 0
Estelline 3SSE 11:59 PM 40 37 22 /16 91 / 15 7.3  (N) 4.6 17.2 mph 184° @ 0352 PM 1.8 or 0.07 0.00 13.7 104.7 0
Floydada 2NNE 11:55 PM 40 37 22 /16 91 / 15 10.6  (N) 7.1 22.3 mph 208° @ 1020 PM 2 or 0.08 0.00 14.9 110 0
Fluvanna 3WNW 11:55 PM 40 37 22 /16 91 / 15 9.1  (N) 6 19.9 mph 17° @ 0230 AM 1.8 or 0.07 0.00 14.3 102.5 0
Fort Chadbourne 11:59 PM 40 37 22 /16 91 / 15 5  (N) 3.2 19.3 mph 8° @ 0158 AM 1.5 or 0.06 0.00 14.2 99.1 0
Fort Lancaster 11:59 PM 40 37 22 /16 91 / 15 3.4  (N) 1.9 21.9 mph 2° @ 1207 AM 1.5 or 0.06 0.00 15.9 106.2 0
Fort Lewis CO 11:59 PM 40 37 22 /16 91 / 15 6.6  (E) 3.1 19.1 mph 237° @ 0413 PM 1 or 0.04 0.00 13.3 107 0
Fort McKavett 11:59 PM 40 37 22 /16 91 / 15 5.1  (N) 2.8 18.2 mph 8° @ 0532 AM 1.5 or 0.06 0.00 16.4 110.1 0
Friona 2NE 11:55 PM 40 37 22 /16 91 / 15 12.2  (NW) 8.8 29.8 mph 220° @ 0250 PM 2 or 0.08 0.00 14.5 109.2 0
Fritch 1WNW 11:59 PM 40 37 22 /16 91 / 15 13.2  (N) 11.3 33.7 mph 226° @ 1045 PM 2.3 or 0.09 0.00 13.5 106.4 0
Gail 2ESE 11:59 PM 40 37 22 /16 91 / 15 6.4  (NW) 2.9 15.3 mph 217° @ 0416 PM 1.5 or 0.06 0.00 15.5 110.2 0
Goodlett 3W 11:55 PM 40 37 22 /16 91 / 15 9.6  (N) 6.4 18 mph 212° @ 0400 PM 1.8 or 0.07 0.00 15.1 114.5 0
Goodnight 11:59 PM 40 37 22 /16 91 / 15 13.1  (NW) 9.1 26 mph 228° @ 1132 PM 2.3 or 0.09 0.00 13.8 105.8 0
Graham 5SSW 11:59 PM 40 37 22 /16 91 / 15 9  (NW) 5.9 18.6 mph 215° @ 0358 PM 2 or 0.08 0.01 15.6 112.1 0
Guadalupe Mtns Natl Park 11:59 PM 40 37 22 /16 91 / 15 9.3  (NE) 7 25.2 mph 242° @ 0702 PM 1.8 or 0.07 0.00 13.8 93.6 0
Guthrie 10WSW 11:55 PM 40 37 22 /16 91 / 15 7.6  (N) 4.5 19.1 mph 211° @ 0345 PM 1.8 or 0.07 0.00 14.5 106.8 0
Hackberry 2SSE 11:59 PM 40 37 22 /16 91 / 15 9.8  (NW) 6.5 22.5 mph 211° @ 1148 PM 1.8 or 0.07 0.00 15.8 118.3 0
Happy 1E 11:59 PM 40 37 22 /16 91 / 15 13.1  (N) 10.2 29.3 mph 228° @ 0416 PM 2 or 0.08 0.00 14.6 110.9 0
Hart 3N 11:55 PM 40 37 22 /16 91 / 15 11.9  (N) 8.4 25.4 mph 212° @ 0355 PM 1.8 or 0.07 0.00 14.3 107.1 0
Haskell 1NW 11:55 PM 40 37 22 /16 91 / 15 9.1  (N) 6.1 26.9 mph 6° @ 0100 AM 1.5 or 0.06 0.00 14.1 102.8 0
Hefner 1SW 11:59 PM 40 37 22 /16 91 / 15 9.2  (N) 6.4 19.7 mph 201° @ 1153 PM 1.5 or 0.06 0.00 14.7 108.5 0
Hereford 2NW 11:55 PM 40 37 22 /16 91 / 15 12.1  (NW) 8.8 29.8 mph 225° @ 0400 PM 1.8 or 0.07 0.00 13.8 104.6 0
Hobbs NM 5NW 11:59 PM 40 37 22 /16 91 / 15 6.6  (N) 4.5 21.3 mph 215° @ 0243 PM 1.5 or 0.06 0.00 15.5 109.3 0
Jayton 1SSE 11:55 PM 40 37 22 /16 91 / 15 7.4  (N) 4.6 18.4 mph 213° @ 0410 PM 1.5 or 0.06 0.00 14.6 106.3 0
Junction 1SSW 11:59 PM 40 37 22 /16 91 / 15 4.2  (N) 2.8 16.9 mph 355° @ 0210 AM 1.5 or 0.06 0.00 14.1 94.4 0
Kent 9E 11:59 PM 40 37 22 /16 91 / 15 6.4  (NE) 4.3 15.5 mph 46° @ 1219 AM 1.8 or 0.07 0.00 15.6 103.9 0
Knox City 3NW 11:59 PM 40 37 22 /16 91 / 15 7.1  (N) 4.3 17.5 mph 214° @ 1130 PM 1.5 or 0.06 0.00 15.3 112.4 0
Lake Alan Henry 1NW 11:59 PM 40 37 22 /16 91 / 15 7.4  (NW) 4.4 15.6 mph 218° @ 0344 PM 1.8 or 0.07 0.00 14.7 106 0
Lake McClellan 2NW 11:59 PM 40 37 22 /16 91 / 15 14.2  (N) 10.6 27.3 mph 234° @ 0309 PM 2.3 or 0.09 0.00 14 108.3 0
Lamesa 2SE 11:55 PM 40 37 22 /16 91 / 15 7.7  (N) 4.1 14.8 mph 346° @ 0330 AM 1.8 or 0.07 0.00 15.8 112.5 0
Lesley 2S 11:59 PM 40 37 22 /16 91 / 15 7.1  (NW) 4.5 20.4 mph 235° @ 0448 PM 1.8 or 0.07 0.00 15.3 116.6 0
Levelland 4S 11:59 PM 40 37 22 /16 91 / 15 9.8  (NW) 7.2 21.9 mph 226° @ 0416 PM 1.8 or 0.07 0.00 14.6 106.5 0
Lomax 1SSE 11:59 PM 40 37 22 /16 91 / 15 6.1  (N) 3.8 14.2 mph 220° @ 0346 PM 1.5 or 0.06 0.00 15.9 111.4 0
Lubbock 3WNW TTU 11:55 PM 40 37 22 /16 91 / 15 8.5  (NW) 4.4 22.7 mph 217° @ 1055 PM 1.8 or 0.07 0.00 14.8 108.3 0
McAdoo 3NNW 11:59 PM 40 37 22 /16 91 / 15 10.5  (N) 6.9 21.9 mph 5° @ 0200 AM 2 or 0.08 0.00 14.7 108.2 0
McCamey 1SSW 11:59 PM 40 37 22 /16 91 / 15 4  (N) 2.4 12.7 mph 270° @ 1249 PM 1.5 or 0.06 0.00 14.1 95.6 0
McLean 1E 11:55 PM 40 37 22 /16 91 / 15 11.9  (NW) 8.8 25.5 mph 234° @ 0250 PM 2 or 0.08 0.00 15.2 117.8 0
Memphis 1NE 11:55 PM 40 37 22 /16 91 / 15 6.5  (N) 4.1 19.4 mph 2° @ 1255 AM 1.5 or 0.06 0.01 2.5 94.5 0
Menard 2NW 11:59 PM 40 37 22 /16 91 / 15 5.4  (N) 4 20.7 mph 358° @ 0359 AM 1.5 or 0.06 0.00 14.5 97.7 0
Mertzon 3NNE 11:59 PM 40 37 22 /16 91 / 15 5.1  (NW) 2.4 13.4 mph 4° @ 1036 AM 1.5 or 0.06 0.00 16.3 111.5 0
Morton 1ENE 11:55 PM 40 37 22 /16 91 / 15 9.8  (NW) 5.7 23.5 mph 216° @ 0455 PM 2 or 0.08 0.00 13.9 101.6 0
Muleshoe 2SSW 11:55 PM 40 37 22 /16 91 / 15 10.9  (W) 7.3 24.7 mph 232° @ 0315 PM 2 or 0.08 0.00 15.2 113 0
New Home 11:59 PM 40 37 22 /16 91 / 15 8.1  (NW) 4.7 18.8 mph 231° @ 0415 PM 1.8 or 0.07 0.00 14.4 104.4 0
Northfield 1S 11:55 PM 40 37 22 /16 91 / 15 7.6  (N) 4.1 18.8 mph 225° @ 0445 PM 1.8 or 0.07 0.01 13.8 104.2 0
O'Donnell 1N 11:55 PM 40 37 22 /16 91 / 15 8.1  (N) 4.1 16.8 mph 216° @ 0255 PM 1.8 or 0.07 0.00 12.9 92.1 0
Odell 4ENE 11:59 PM 40 37 22 /16 91 / 15 9  (NW) 5.7 19.1 mph 213° @ 0408 PM 1.5 or 0.06 0.01 13.9 106.2 0
Olton 6S 11:55 PM 40 37 22 /16 91 / 15 11.3  (NW) 7.9 22 mph 225° @ 0255 PM 1.8 or 0.07 0.00 14.5 107.2 0
Paducah 10SW 11:55 PM 40 37 22 /16 91 / 15 9.9  (N) 5.5 22.1 mph 217° @ 1135 PM 2 or 0.08 0.00 13.2 98.6 0
Palo Duro 4E (JA Ranch) 11:59 PM 40 37 22 /16 91 / 15 8.7  (NW) 5.1 24.4 mph 234° @ 0335 PM 2 or 0.08 0.01 14.2 109.2 0
Palo Duro Canyon SP Floor 11:59 PM 40 37 22 /16 91 / 15 6.5  (NW) 3.2 30.7 mph 232° @ 1146 PM 1.5 or 0.06 0.00 13.2 101.4 0
Palo Duro Canyon State Park Rim 11:59 PM 40 37 22 /16 91 / 15 11.7  (N) 6.7 33.3 mph 227° @ 1040 PM 2 or 0.08 0.00 14.7 112.7 0
Palo Duro Reservoir 1NW 11:59 PM 40 37 22 /16 91 / 15 14.1  (NW) 9.2 33.2 mph 232° @ 0311 PM 2.3 or 0.09 0.00 12.9 104.7 0
Pampa 2E 11:55 PM 40 37 22 /16 91 / 15 10.9  (NW) 7.7 27.8 mph 221° @ 1115 PM 1.8 or 0.07 0.00 13 101.6 0
Panhandle 1SSW 11:59 PM 40 37 22 /16 91 / 15 12.7  (N) 9.7 27.6 mph 220° @ 0340 PM 2 or 0.08 0.00 14 108.9 0
Plains 3N 11:55 PM 40 37 22 /16 91 / 15 8.9  (N) 6.2 21 mph 213° @ 0410 PM 1.8 or 0.07 0.00 15 107.7 0
Plainview 1S 11:59 PM 40 37 22 /16 91 / 15 9.1  (N) 6.8 23 mph 227° @ 0429 PM 1.8 or 0.07 0.00 15.2 113 0
Post 1NE 11:59 PM 40 37 22 /16 91 / 15 8.3  (NW) 5.1 21.9 mph 226° @ 1125 PM 2 or 0.08 0.00 14.7 106.7 0
Ralls 1SE 11:55 PM 40 37 22 /16 91 / 15 9.5  (N) 6.9 19.3 mph 227° @ 0315 PM 2 or 0.08 0.00 2.9 107.6 0
Reese Center 11:59 PM 40 37 22 /16 91 / 15 10.3  (W) 7.1 23 mph 228° @ 0225 PM 2 or 0.08 0.00 14.4 105 0
Roaring Springs 3N 11:55 PM 40 37 22 /16 91 / 15 10.3  (N) 7.1 23 mph 218° @ 1150 PM 2 or 0.08 0.00 2.6 98.2 0
Romero 11SSW 11:59 PM 40 37 22 /16 91 / 15 10.8  (N) 6.7 30.2 mph 226° @ 0247 PM 1.8 or 0.07 0.00 12.6 98.4 0
Rotan 5W 11:59 PM 40 37 22 /16 91 / 15 9.3  (NW) 6.3 19.8 mph 1° @ 0258 AM 1.8 or 0.07 0.00 16.5 118.7 0
San Angelo 7NW 11:55 PM 40 37 22 /16 91 / 15 4.4  (NW) 2.6 13.2 mph 319° @ 0945 AM 1.5 or 0.06 0.00 15.9 109.7 0
Seagraves 1SW 11:55 PM 40 37 22 /16 91 / 15 8.1  (NW) 4.4 17.9 mph 211° @ 0405 PM 1.8 or 0.07 0.00 12.7 90.3 0
Segovia 7SSW 11:59 PM 40 37 22 /16 91 / 15 7.2  (NW) 4.8 21.8 mph 342° @ 0237 AM 1.8 or 0.07 0.00 16 105.8 0
Seminole 2NNE 11:55 PM 40 37 22 /16 91 / 15 7.7  (NW) 4.7 19.7 mph 210° @ 1010 PM 1.8 or 0.07 0.00 14.9 105.3 0
Seymour 3NW 11:55 PM 40 37 22 /16 91 / 15 8.7  (N) 6.4 17.2 mph 346° @ 1205 AM 1.5 or 0.06 0.00 12.5 92.5 0
Sierra Blanca 1SSE 11:59 PM 40 37 22 /16 91 / 15 6.3  (NE) 4.4 23.2 mph 53° @ 1217 AM 1.8 or 0.07 0.00 13.9 92.6 0
Silverton 7ESE 11:55 PM 40 37 22 /16 91 / 15 12.6  (N) 9 25.8 mph 227° @ 1055 PM 2 or 0.08 0.00 13.7 103.3 0
Slaton 2NE 11:59 PM 40 37 22 /16 91 / 15 10.3  (NW) 7.3 23 mph 215° @ 1155 PM 2 or 0.08 0.00 15.6 113.5 0
Smyer 11:59 PM 40 37 22 /16 91 / 15 10.1  (NW) 7.3 20.2 mph 238° @ 0412 PM 2 or 0.08 0.00 15 109.3 0
Snyder 3E 11:55 PM 40 37 22 /16 91 / 15 8.6  (N) 3.7 19.6 mph 1° @ 1215 AM 1.8 or 0.07 0.00 13.1 93.5 0
Snyder 3SSW 11:59 PM 40 37 22 /16 91 / 15 8.1  (N) 5.4 17.9 mph 12° @ 0125 AM 1.8 or 0.07 0.00 15.1 107.5 0
South Plains 3ENE 11:59 PM 40 37 22 /16 91 / 15 9.4  (N) 6.5 22.2 mph 247° @ 0321 PM 1.8 or 0.07 0.00 14.4 107.8 0
Spur 1W 11:55 PM 40 37 22 /16 91 / 15 6.2  (N) 3.5 16.6 mph 235° @ 0335 PM 1.5 or 0.06 0.00 14.8 108.2 0
St. Lawrence 5SW 11:55 PM 40 37 22 /16 91 / 15 7.5  (N) 5.4 13.5 mph 3° @ 0115 AM 1.8 or 0.07 0.00 15.7 107.7 0
Stamford 5ESE 11:59 PM 40 37 22 /16 91 / 15 8.2  (NW) 5.3 25.4 mph 5° @ 0149 AM 1.5 or 0.06 0.00 15.4 111.3 0
Sterling City 4WSW 11:59 PM 40 37 22 /16 91 / 15 4.2  (N) 1.8 14.8 mph 291° @ 0226 PM 1.3 or 0.05 0.00 12.6 87.3 0
Stinnett 1NNW 11:59 PM 40 37 22 /16 91 / 15 15  (N) 9.8 29.4 mph 235° @ 0227 PM 2.3 or 0.09 0.00 13.8 109 0
Stratford 4WNW 11:59 PM 40 37 22 /16 91 / 15 15.5  (W) 10.1 36.1 mph 242° @ 1150 AM 2.3 or 0.09 0.01 13.2 106.3 0
Sundown 8WSW 11:55 PM 40 37 22 /16 91 / 15 9.7  (N) 5.3 23.5 mph 213° @ 0225 PM 2 or 0.08 0.00 12.6 90.8 0
Sweetwater 11SW 11:59 PM 40 37 22 /16 91 / 15 7.7  (N) 4.8 19.1 mph 26° @ 0208 AM 1.5 or 0.06 0.00 16.6 117.2 0
Tahoka 3NNE 11:59 PM 40 37 22 /16 91 / 15 8.1  (NW) 4.5 18.3 mph 232° @ 0402 PM 1.8 or 0.07 0.00 15.4 111 0
Tarzan 2WNW 11:59 PM 40 37 22 /16 91 / 15 7  (NW) 4.4 14.1 mph 233° @ 0234 PM 1.8 or 0.07 0.00 15.4 108 0
Tatum NM 2SW 11:55 PM 40 37 22 /16 91 / 15 10.8  (W) 4.7 24.3 mph 202° @ 0300 PM 2 or 0.08 0.00 15.3 109.9 0
Throckmorton 1SW 11:59 PM 40 37 22 /16 91 / 15 8.8  (N) 4.5 22.4 mph 356° @ 1230 AM 1.8 or 0.07 0.00 15.4 112.3 0
Truscott 2SE 11:59 PM 40 37 22 /16 91 / 15 8.9  (N) 5.7 19.7 mph 349° @ 1203 AM 1.8 or 0.07 0.00 13.9 103.2 0
Tulia 2ENE 11:55 PM 40 37 22 /16 91 / 15 12.9  (N) 9.1 26.1 mph 235° @ 0245 PM 2 or 0.08 0.00 12.4 93.3 0
Turkey 2WSW 11:55 PM 40 37 22 /16 91 / 15 11.2  (NW) 8.1 30.7 mph 204° @ 1115 PM 2.3 or 0.09 0.00 12.4 94 0
Umbarger 3NNE 11:59 PM 40 37 22 /16 91 / 15 13.2  (NW) 8.4 30.6 mph 213° @ 0406 PM 2 or 0.08 0.00 13.4 102.5 0
Van Horn 3ENE 11:59 PM 40 37 22 /16 91 / 15 7.3  (NE) 4.5 19.9 mph 42° @ 1238 AM 2 or 0.08 0.00 16.4 109.6 0
Vega 4E 11:59 PM 40 37 22 /16 91 / 15 12.4  (N) 8.6 32.9 mph 213° @ 0428 PM 2 or 0.08 0.00 14.7 113.1 0
Vigo Park 11:59 PM 40 37 22 /16 91 / 15 12  (N) 8.2 26.2 mph 219° @ 0342 PM 1.8 or 0.07 0.00 12.8 96.6 0
Wall 2E 11:59 PM 40 37 22 /16 91 / 15 6.8  (NW) 4.1 14 mph 183° @ 0900 PM 1.8 or 0.07 0.00 15.7 107.6 0
Weinert 2NNE 11:59 PM 40 37 22 /16 91 / 15 9.1  (N) 6.7 24.9 mph 7° @ 1234 AM 1.5 or 0.06 0.00 13.7 100.7 0
Welch 11:59 PM 40 37 22 /16 91 / 15 7.9  (NW) 5 16.1 mph 214° @ 0437 PM 1.8 or 0.07 0.00 15.5 110.4 0
White River Lake 6NW 11:59 PM 40 37 22 /16 91 / 15 8.4  (N) 5.3 19.7 mph 219° @ 0427 PM 2 or 0.08 0.00 15.3 112.1 0
Wolfforth 6SSW 11:59 PM 40 37 22 /16 91 / 15 9.7  (NW) 5.8 20.8 mph 234° @ 0330 PM 2 or 0.08 0.00 15.1 109.5 0

WestTexas Mesonet Home    Site Map/Menu  National Weather Service Lubbock   Soil Data   Latest Observation Page   Previous  Date